sensor_id;sensor_type;location;lat;lon;timestamp;temperature;humidity
2190;DHT22;1101;51.056;7.262;2022-10-17T00:00:09;14.90;99.90
2190;DHT22;1101;51.056;7.262;2022-10-17T00:02:38;14.90;99.90
2190;DHT22;1101;51.056;7.262;2022-10-17T00:05:07;14.90;99.90
2190;DHT22;1101;51.056;7.262;2022-10-17T00:07:34;15.00;99.90
2190;DHT22;1101;51.056;7.262;2022-10-17T00:10:03;15.00;99.90
2190;DHT22;1101;51.056;7.262;2022-10-17T00:12:31;15.00;99.90
2190;DHT22;1101;51.056;7.262;2022-10-17T00:14:59;15.00;99.90
2190;DHT22;1101;51.056;7.262;2022-10-17T00:17:26;15.00;99.90
2190;DHT22;1101;51.056;7.262;2022-10-17T00:19:57;15.00;99.90
2190;DHT22;1101;51.056;7.262;2022-10-17T00:22:25;15.00;99.90
2190;DHT22;1101;51.056;7.262;2022-10-17T00:24:53;15.00;99.90
2190;DHT22;1101;51.056;7.262;2022-10-17T00:27:21;15.00;99.90
2190;DHT22;1101;51.056;7.262;2022-10-17T00:29:48;15.00;99.90
2190;DHT22;1101;51.056;7.262;2022-10-17T00:32:17;15.00;99.90
2190;DHT22;1101;51.056;7.262;2022-10-17T00:34:44;15.00;99.90
2190;DHT22;1101;51.056;7.262;2022-10-17T00:37:13;15.00;99.90
2190;DHT22;1101;51.056;7.262;2022-10-17T00:39:41;15.00;99.90
2190;DHT22;1101;51.056;7.262;2022-10-17T00:42:10;15.00;99.90
2190;DHT22;1101;51.056;7.262;2022-10-17T00:45:06;15.00;99.90
2190;DHT22;1101;51.056;7.262;2022-10-17T00:47:35;15.00;99.90
2190;DHT22;1101;51.056;7.262;2022-10-17T00:50:04;15.00;99.90
2190;DHT22;1101;51.056;7.262;2022-10-17T00:52:34;15.00;99.90
2190;DHT22;1101;51.056;7.262;2022-10-17T00:55:07;15.00;99.90
2190;DHT22;1101;51.056;7.262;2022-10-17T00:57:37;15.00;99.90
2190;DHT22;1101;51.056;7.262;2022-10-17T01:00:07;15.00;99.90
2190;DHT22;1101;51.056;7.262;2022-10-17T01:02:36;15.00;99.90
2190;DHT22;1101;51.056;7.262;2022-10-17T01:05:05;15.00;99.90
2190;DHT22;1101;51.056;7.262;2022-10-17T01:07:35;15.00;99.90
2190;DHT22;1101;51.056;7.262;2022-10-17T01:10:05;15.00;99.90
2190;DHT22;1101;51.056;7.262;2022-10-17T01:12:44;15.00;99.90
2190;DHT22;1101;51.056;7.262;2022-10-17T01:15:22;15.00;99.90
2190;DHT22;1101;51.056;7.262;2022-10-17T01:18:02;15.00;99.90
2190;DHT22;1101;51.056;7.262;2022-10-17T01:21:02;15.00;99.90
2190;DHT22;1101;51.056;7.262;2022-10-17T01:23:58;15.00;99.90
2190;DHT22;1101;51.056;7.262;2022-10-17T01:26:40;15.00;99.90
2190;DHT22;1101;51.056;7.262;2022-10-17T01:29:27;15.00;99.90
2190;DHT22;1101;51.056;7.262;2022-10-17T01:32:01;15.00;99.90
2190;DHT22;1101;51.056;7.262;2022-10-17T01:34:32;14.90;99.90
2190;DHT22;1101;51.056;7.262;2022-10-17T01:37:05;14.90;99.90
2190;DHT22;1101;51.056;7.262;2022-10-17T01:39:40;14.90;99.90
2190;DHT22;1101;51.056;7.262;2022-10-17T01:42:16;14.90;99.90
2190;DHT22;1101;51.056;7.262;2022-10-17T01:44:49;14.90;99.90
2190;DHT22;1101;51.056;7.262;2022-10-17T01:47:23;14.90;99.90
2190;DHT22;1101;51.056;7.262;2022-10-17T01:49:55;14.90;99.90
2190;DHT22;1101;51.056;7.262;2022-10-17T01:52:27;14.90;99.90
2190;DHT22;1101;51.056;7.262;2022-10-17T01:55:03;14.90;99.90
2190;DHT22;1101;51.056;7.262;2022-10-17T01:57:36;14.90;99.90
2190;DHT22;1101;51.056;7.262;2022-10-17T02:00:10;14.90;99.90
2190;DHT22;1101;51.056;7.262;2022-10-17T02:02:43;14.80;99.90
2190;DHT22;1101;51.056;7.262;2022-10-17T02:05:11;14.80;99.90
2190;DHT22;1101;51.056;7.262;2022-10-17T02:07:40;14.80;99.90
2190;DHT22;1101;51.056;7.262;2022-10-17T02:10:14;14.80;99.90
2190;DHT22;1101;51.056;7.262;2022-10-17T02:12:49;14.80;99.90
2190;DHT22;1101;51.056;7.262;2022-10-17T02:15:32;14.80;99.90
2190;DHT22;1101;51.056;7.262;2022-10-17T02:18:14;14.80;99.90
2190;DHT22;1101;51.056;7.262;2022-10-17T02:20:50;14.80;99.90
2190;DHT22;1101;51.056;7.262;2022-10-17T02:23:24;14.80;99.90
2190;DHT22;1101;51.056;7.262;2022-10-17T02:25:59;14.80;99.90
2190;DHT22;1101;51.056;7.262;2022-10-17T02:28:33;14.80;99.90
2190;DHT22;1101;51.056;7.262;2022-10-17T02:31:05;14.80;99.90
2190;DHT22;1101;51.056;7.262;2022-10-17T02:33:40;14.80;99.90
2190;DHT22;1101;51.056;7.262;2022-10-17T02:36:13;14.80;99.90
2190;DHT22;1101;51.056;7.262;2022-10-17T02:38:42;14.80;99.90
2190;DHT22;1101;51.056;7.262;2022-10-17T02:41:14;14.80;99.90
2190;DHT22;1101;51.056;7.262;2022-10-17T02:43:44;14.80;99.90
2190;DHT22;1101;51.056;7.262;2022-10-17T02:46:15;14.80;99.90
2190;DHT22;1101;51.056;7.262;2022-10-17T02:48:49;14.80;99.90
2190;DHT22;1101;51.056;7.262;2022-10-17T02:51:23;14.80;99.90
2190;DHT22;1101;51.056;7.262;2022-10-17T02:53:58;14.80;99.90
2190;DHT22;1101;51.056;7.262;2022-10-17T02:56:30;14.80;99.90
2190;DHT22;1101;51.056;7.262;2022-10-17T02:59:00;14.80;99.90
2190;DHT22;1101;51.056;7.262;2022-10-17T03:01:29;14.80;99.90
2190;DHT22;1101;51.056;7.262;2022-10-17T03:04:07;14.80;99.90
2190;DHT22;1101;51.056;7.262;2022-10-17T03:06:35;14.70;99.90
2190;DHT22;1101;51.056;7.262;2022-10-17T03:09:03;14.80;99.90
2190;DHT22;1101;51.056;7.262;2022-10-17T03:11:31;14.70;99.90
2190;DHT22;1101;51.056;7.262;2022-10-17T03:13:58;14.70;99.90
2190;DHT22;1101;51.056;7.262;2022-10-17T03:16:26;14.70;99.90
2190;DHT22;1101;51.056;7.262;2022-10-17T03:18:54;14.70;99.90
2190;DHT22;1101;51.056;7.262;2022-10-17T03:21:23;14.70;99.90
2190;DHT22;1101;51.056;7.262;2022-10-17T03:23:51;14.60;99.90
2190;DHT22;1101;51.056;7.262;2022-10-17T03:26:18;14.70;99.90
2190;DHT22;1101;51.056;7.262;2022-10-17T03:28:46;14.70;99.90
2190;DHT22;1101;51.056;7.262;2022-10-17T03:31:20;14.70;99.90
2190;DHT22;1101;51.056;7.262;2022-10-17T03:33:47;14.60;99.90
2190;DHT22;1101;51.056;7.262;2022-10-17T03:36:17;14.70;99.90
2190;DHT22;1101;51.056;7.262;2022-10-17T03:38:47;14.70;99.90
2190;DHT22;1101;51.056;7.262;2022-10-17T03:41:15;14.70;99.90
2190;DHT22;1101;51.056;7.262;2022-10-17T03:43:42;14.70;99.90
2190;DHT22;1101;51.056;7.262;2022-10-17T03:46:10;14.70;99.90
2190;DHT22;1101;51.056;7.262;2022-10-17T03:48:38;14.70;99.90
2190;DHT22;1101;51.056;7.262;2022-10-17T03:51:07;14.70;99.90
2190;DHT22;1101;51.056;7.262;2022-10-17T03:53:35;14.70;99.90
2190;DHT22;1101;51.056;7.262;2022-10-17T03:56:13;14.70;99.90
2190;DHT22;1101;51.056;7.262;2022-10-17T03:58:41;14.70;99.90
2190;DHT22;1101;51.056;7.262;2022-10-17T04:01:12;14.70;99.90
2190;DHT22;1101;51.056;7.262;2022-10-17T04:03:40;14.70;99.90
2190;DHT22;1101;51.056;7.262;2022-10-17T04:06:10;14.70;99.90
2190;DHT22;1101;51.056;7.262;2022-10-17T04:08:38;14.70;99.90
2190;DHT22;1101;51.056;7.262;2022-10-17T04:11:09;14.70;99.90
2190;DHT22;1101;51.056;7.262;2022-10-17T04:13:38;14.70;99.90
2190;DHT22;1101;51.056;7.262;2022-10-17T04:16:09;14.70;99.90
2190;DHT22;1101;51.056;7.262;2022-10-17T04:18:37;14.80;99.90
2190;DHT22;1101;51.056;7.262;2022-10-17T04:21:05;14.70;99.90
2190;DHT22;1101;51.056;7.262;2022-10-17T04:23:34;14.80;99.90
2190;DHT22;1101;51.056;7.262;2022-10-17T04:26:03;14.80;99.90
2190;DHT22;1101;51.056;7.262;2022-10-17T04:28:31;14.80;99.90
2190;DHT22;1101;51.056;7.262;2022-10-17T04:31:03;14.80;99.90
2190;DHT22;1101;51.056;7.262;2022-10-17T04:33:33;14.70;99.90
2190;DHT22;1101;51.056;7.262;2022-10-17T04:36:02;14.80;99.90
2190;DHT22;1101;51.056;7.262;2022-10-17T04:38:30;14.70;99.90
2190;DHT22;1101;51.056;7.262;2022-10-17T04:40:59;14.70;99.90
2190;DHT22;1101;51.056;7.262;2022-10-17T04:43:28;14.80;99.90
2190;DHT22;1101;51.056;7.262;2022-10-17T04:45:56;14.80;99.90
2190;DHT22;1101;51.056;7.262;2022-10-17T04:48:26;14.70;99.90
2190;DHT22;1101;51.056;7.262;2022-10-17T04:50:55;14.70;99.90
2190;DHT22;1101;51.056;7.262;2022-10-17T04:53:24;14.70;99.90
2190;DHT22;1101;51.056;7.262;2022-10-17T04:55:52;14.70;99.90
2190;DHT22;1101;51.056;7.262;2022-10-17T04:58:20;14.70;99.90
2190;DHT22;1101;51.056;7.262;2022-10-17T05:00:48;14.70;99.90
2190;DHT22;1101;51.056;7.262;2022-10-17T05:03:16;14.80;99.90
2190;DHT22;1101;51.056;7.262;2022-10-17T05:05:45;14.70;99.90
2190;DHT22;1101;51.056;7.262;2022-10-17T05:08:13;14.70;99.90
2190;DHT22;1101;51.056;7.262;2022-10-17T05:10:42;14.70;99.90
2190;DHT22;1101;51.056;7.262;2022-10-17T05:13:12;14.70;99.90
2190;DHT22;1101;51.056;7.262;2022-10-17T05:15:39;14.70;99.90
2190;DHT22;1101;51.056;7.262;2022-10-17T05:18:07;14.70;99.90
2190;DHT22;1101;51.056;7.262;2022-10-17T05:20:35;14.70;99.90
2190;DHT22;1101;51.056;7.262;2022-10-17T05:23:04;14.70;99.90
2190;DHT22;1101;51.056;7.262;2022-10-17T05:25:31;14.70;99.90
2190;DHT22;1101;51.056;7.262;2022-10-17T05:27:59;14.70;99.90
2190;DHT22;1101;51.056;7.262;2022-10-17T05:30:27;14.70;99.90
2190;DHT22;1101;51.056;7.262;2022-10-17T05:33:02;14.70;99.90
2190;DHT22;1101;51.056;7.262;2022-10-17T05:35:30;14.70;99.90
2190;DHT22;1101;51.056;7.262;2022-10-17T05:37:57;14.70;99.90
2190;DHT22;1101;51.056;7.262;2022-10-17T05:40:27;14.70;99.90
2190;DHT22;1101;51.056;7.262;2022-10-17T05:42:55;14.70;99.90
2190;DHT22;1101;51.056;7.262;2022-10-17T05:45:23;14.70;99.90
2190;DHT22;1101;51.056;7.262;2022-10-17T05:47:50;14.70;99.90
2190;DHT22;1101;51.056;7.262;2022-10-17T05:50:18;14.70;99.90
2190;DHT22;1101;51.056;7.262;2022-10-17T05:52:47;14.70;99.90
2190;DHT22;1101;51.056;7.262;2022-10-17T05:55:19;14.70;99.90
2190;DHT22;1101;51.056;7.262;2022-10-17T05:57:48;14.70;99.90
2190;DHT22;1101;51.056;7.262;2022-10-17T06:00:16;14.70;99.90
2190;DHT22;1101;51.056;7.262;2022-10-17T06:02:43;14.70;99.90
2190;DHT22;1101;51.056;7.262;2022-10-17T06:05:12;14.70;99.90
2190;DHT22;1101;51.056;7.262;2022-10-17T06:07:40;14.70;99.90
2190;DHT22;1101;51.056;7.262;2022-10-17T06:10:09;14.80;99.90
2190;DHT22;1101;51.056;7.262;2022-10-17T06:12:38;14.70;99.90
2190;DHT22;1101;51.056;7.262;2022-10-17T06:15:08;14.80;99.90
2190;DHT22;1101;51.056;7.262;2022-10-17T06:17:36;14.70;99.90
2190;DHT22;1101;51.056;7.262;2022-10-17T06:20:05;14.80;99.90
2190;DHT22;1101;51.056;7.262;2022-10-17T06:22:32;14.80;99.90
2190;DHT22;1101;51.056;7.262;2022-10-17T06:25:00;14.80;99.90
2190;DHT22;1101;51.056;7.262;2022-10-17T06:27:28;14.80;99.90
2190;DHT22;1101;51.056;7.262;2022-10-17T06:29:56;14.90;99.90
2190;DHT22;1101;51.056;7.262;2022-10-17T06:32:25;14.90;99.90
2190;DHT22;1101;51.056;7.262;2022-10-17T06:34:53;14.90;99.90
2190;DHT22;1101;51.056;7.262;2022-10-17T06:37:21;14.90;99.90
2190;DHT22;1101;51.056;7.262;2022-10-17T06:39:48;15.00;99.90
2190;DHT22;1101;51.056;7.262;2022-10-17T06:42:16;15.00;99.90
2190;DHT22;1101;51.056;7.262;2022-10-17T06:44:44;15.00;99.90
2190;DHT22;1101;51.056;7.262;2022-10-17T06:47:11;15.00;99.90
2190;DHT22;1101;51.056;7.262;2022-10-17T06:49:46;15.00;99.90
2190;DHT22;1101;51.056;7.262;2022-10-17T06:52:13;15.10;99.90
2190;DHT22;1101;51.056;7.262;2022-10-17T06:54:42;15.10;99.90
2190;DHT22;1101;51.056;7.262;2022-10-17T06:57:10;15.10;99.90
2190;DHT22;1101;51.056;7.262;2022-10-17T06:59:38;15.20;99.90
2190;DHT22;1101;51.056;7.262;2022-10-17T07:02:07;15.20;99.90
2190;DHT22;1101;51.056;7.262;2022-10-17T07:04:35;15.20;99.90
2190;DHT22;1101;51.056;7.262;2022-10-17T07:07:04;15.30;99.90
2190;DHT22;1101;51.056;7.262;2022-10-17T07:09:32;15.30;99.90
2190;DHT22;1101;51.056;7.262;2022-10-17T07:12:01;15.40;99.90
2190;DHT22;1101;51.056;7.262;2022-10-17T07:14:29;15.40;99.90
2190;DHT22;1101;51.056;7.262;2022-10-17T07:16:58;15.40;99.90
2190;DHT22;1101;51.056;7.262;2022-10-17T07:19:26;15.50;99.90
2190;DHT22;1101;51.056;7.262;2022-10-17T07:21:54;15.50;99.90
2190;DHT22;1101;51.056;7.262;2022-10-17T07:24:23;15.50;99.90
2190;DHT22;1101;51.056;7.262;2022-10-17T07:26:51;15.60;99.90
2190;DHT22;1101;51.056;7.262;2022-10-17T07:29:18;15.60;99.90
2190;DHT22;1101;51.056;7.262;2022-10-17T07:31:46;15.70;99.90
2190;DHT22;1101;51.056;7.262;2022-10-17T07:34:15;15.70;99.90
2190;DHT22;1101;51.056;7.262;2022-10-17T07:36:43;15.80;99.90
2190;DHT22;1101;51.056;7.262;2022-10-17T07:39:11;15.80;99.90
2190;DHT22;1101;51.056;7.262;2022-10-17T07:41:40;15.90;99.90
2190;DHT22;1101;51.056;7.262;2022-10-17T07:44:07;15.90;99.90
2190;DHT22;1101;51.056;7.262;2022-10-17T07:46:35;16.00;99.90
2190;DHT22;1101;51.056;7.262;2022-10-17T07:49:03;16.00;99.90
2190;DHT22;1101;51.056;7.262;2022-10-17T07:51:31;16.10;99.90
2190;DHT22;1101;51.056;7.262;2022-10-17T07:53:59;16.10;99.90
2190;DHT22;1101;51.056;7.262;2022-10-17T07:56:27;16.20;99.90
2190;DHT22;1101;51.056;7.262;2022-10-17T07:58:56;16.20;99.90
2190;DHT22;1101;51.056;7.262;2022-10-17T08:01:28;16.20;99.90
2190;DHT22;1101;51.056;7.262;2022-10-17T08:03:56;16.30;99.90
2190;DHT22;1101;51.056;7.262;2022-10-17T08:06:24;16.40;99.90
2190;DHT22;1101;51.056;7.262;2022-10-17T08:08:51;16.40;99.90
2190;DHT22;1101;51.056;7.262;2022-10-17T08:11:19;16.50;99.90
2190;DHT22;1101;51.056;7.262;2022-10-17T08:13:48;16.50;99.90
2190;DHT22;1101;51.056;7.262;2022-10-17T08:16:17;16.60;99.90
2190;DHT22;1101;51.056;7.262;2022-10-17T08:18:45;16.70;99.90
2190;DHT22;1101;51.056;7.262;2022-10-17T08:21:13;16.70;99.90
2190;DHT22;1101;51.056;7.262;2022-10-17T08:23:40;16.80;99.90
2190;DHT22;1101;51.056;7.262;2022-10-17T08:26:09;16.80;99.90
2190;DHT22;1101;51.056;7.262;2022-10-17T08:28:39;16.90;99.90
2190;DHT22;1101;51.056;7.262;2022-10-17T08:31:09;16.90;99.90
2190;DHT22;1101;51.056;7.262;2022-10-17T08:33:39;17.00;99.90
2190;DHT22;1101;51.056;7.262;2022-10-17T08:36:08;17.00;99.90
2190;DHT22;1101;51.056;7.262;2022-10-17T08:38:36;17.00;99.90
2190;DHT22;1101;51.056;7.262;2022-10-17T08:41:14;17.10;99.90
2190;DHT22;1101;51.056;7.262;2022-10-17T08:43:55;17.10;99.90
2190;DHT22;1101;51.056;7.262;2022-10-17T08:46:29;17.10;99.90
2190;DHT22;1101;51.056;7.262;2022-10-17T08:49:01;17.10;99.90
2190;DHT22;1101;51.056;7.262;2022-10-17T08:51:35;17.20;99.90
2190;DHT22;1101;51.056;7.262;2022-10-17T08:54:11;17.20;99.90
2190;DHT22;1101;51.056;7.262;2022-10-17T08:56:43;17.30;99.90
2190;DHT22;1101;51.056;7.262;2022-10-17T08:59:17;17.30;99.90
2190;DHT22;1101;51.056;7.262;2022-10-17T09:01:49;17.40;99.90
2190;DHT22;1101;51.056;7.262;2022-10-17T09:04:44;17.40;99.90
2190;DHT22;1101;51.056;7.262;2022-10-17T09:07:17;17.50;99.90
2190;DHT22;1101;51.056;7.262;2022-10-17T09:09:56;17.60;99.90
2190;DHT22;1101;51.056;7.262;2022-10-17T09:12:33;17.60;99.90
2190;DHT22;1101;51.056;7.262;2022-10-17T09:15:19;17.70;99.90
2190;DHT22;1101;51.056;7.262;2022-10-17T09:17:53;17.80;99.90
2190;DHT22;1101;51.056;7.262;2022-10-17T09:20:25;17.80;99.90
2190;DHT22;1101;51.056;7.262;2022-10-17T09:22:56;17.90;99.90
2190;DHT22;1101;51.056;7.262;2022-10-17T09:25:25;17.90;99.90
2190;DHT22;1101;51.056;7.262;2022-10-17T09:27:57;18.00;99.90
2190;DHT22;1101;51.056;7.262;2022-10-17T09:30:34;18.10;99.90
2190;DHT22;1101;51.056;7.262;2022-10-17T09:33:13;18.10;99.90
2190;DHT22;1101;51.056;7.262;2022-10-17T09:36:05;18.10;99.90
2190;DHT22;1101;51.056;7.262;2022-10-17T09:38:38;18.20;99.90
2190;DHT22;1101;51.056;7.262;2022-10-17T09:41:14;18.20;99.90
2190;DHT22;1101;51.056;7.262;2022-10-17T09:44:14;18.30;99.90
2190;DHT22;1101;51.056;7.262;2022-10-17T09:46:55;18.30;99.90
2190;DHT22;1101;51.056;7.262;2022-10-17T09:49:30;18.30;99.90
2190;DHT22;1101;51.056;7.262;2022-10-17T09:52:02;18.30;99.90
2190;DHT22;1101;51.056;7.262;2022-10-17T09:54:38;18.40;99.90
2190;DHT22;1101;51.056;7.262;2022-10-17T09:57:09;18.50;99.90
2190;DHT22;1101;51.056;7.262;2022-10-17T09:59:39;18.50;99.90
2190;DHT22;1101;51.056;7.262;2022-10-17T10:02:13;18.50;99.90
2190;DHT22;1101;51.056;7.262;2022-10-17T10:04:57;18.60;99.90
2190;DHT22;1101;51.056;7.262;2022-10-17T10:07:33;18.60;99.90
2190;DHT22;1101;51.056;7.262;2022-10-17T10:10:04;18.60;99.90
2190;DHT22;1101;51.056;7.262;2022-10-17T10:12:34;18.60;99.90
2190;DHT22;1101;51.056;7.262;2022-10-17T10:15:32;18.70;99.90
2190;DHT22;1101;51.056;7.262;2022-10-17T10:18:00;18.70;99.90
2190;DHT22;1101;51.056;7.262;2022-10-17T10:20:32;18.80;99.90
2190;DHT22;1101;51.056;7.262;2022-10-17T10:23:09;18.90;99.90
2190;DHT22;1101;51.056;7.262;2022-10-17T10:25:41;19.10;99.90
2190;DHT22;1101;51.056;7.262;2022-10-17T10:28:16;19.20;99.90
2190;DHT22;1101;51.056;7.262;2022-10-17T10:30:46;19.40;99.90
2190;DHT22;1101;51.056;7.262;2022-10-17T10:33:18;19.40;99.90
2190;DHT22;1101;51.056;7.262;2022-10-17T10:35:53;19.50;99.90
2190;DHT22;1101;51.056;7.262;2022-10-17T10:38:23;19.60;99.90
2190;DHT22;1101;51.056;7.262;2022-10-17T10:40:53;19.60;99.90
2190;DHT22;1101;51.056;7.262;2022-10-17T10:43:26;19.60;99.90
2190;DHT22;1101;51.056;7.262;2022-10-17T10:45:56;19.50;99.90
2190;DHT22;1101;51.056;7.262;2022-10-17T10:48:26;19.50;99.90
2190;DHT22;1101;51.056;7.262;2022-10-17T10:50:56;19.50;99.90
2190;DHT22;1101;51.056;7.262;2022-10-17T10:53:33;19.40;99.90
2190;DHT22;1101;51.056;7.262;2022-10-17T10:56:06;19.40;99.90
2190;DHT22;1101;51.056;7.262;2022-10-17T10:58:50;19.40;99.90
2190;DHT22;1101;51.056;7.262;2022-10-17T11:01:24;19.50;99.90
2190;DHT22;1101;51.056;7.262;2022-10-17T11:04:06;19.50;99.90
2190;DHT22;1101;51.056;7.262;2022-10-17T11:06:40;19.50;99.90
2190;DHT22;1101;51.056;7.262;2022-10-17T11:09:18;19.50;99.90
2190;DHT22;1101;51.056;7.262;2022-10-17T11:11:55;19.50;99.90
2190;DHT22;1101;51.056;7.262;2022-10-17T11:14:35;19.50;99.90
2190;DHT22;1101;51.056;7.262;2022-10-17T11:17:09;19.50;99.90
2190;DHT22;1101;51.056;7.262;2022-10-17T11:19:43;19.50;99.90
2190;DHT22;1101;51.056;7.262;2022-10-17T11:22:15;19.60;99.90
2190;DHT22;1101;51.056;7.262;2022-10-17T11:24:49;19.60;99.90
2190;DHT22;1101;51.056;7.262;2022-10-17T11:27:23;19.60;99.90
2190;DHT22;1101;51.056;7.262;2022-10-17T11:29:51;19.60;99.90
2190;DHT22;1101;51.056;7.262;2022-10-17T11:32:22;19.60;99.90
2190;DHT22;1101;51.056;7.262;2022-10-17T11:34:56;19.60;99.90
2190;DHT22;1101;51.056;7.262;2022-10-17T11:37:28;19.60;99.90
2190;DHT22;1101;51.056;7.262;2022-10-17T11:40:01;19.60;99.90
2190;DHT22;1101;51.056;7.262;2022-10-17T11:42:32;19.60;99.90
2190;DHT22;1101;51.056;7.262;2022-10-17T11:45:07;19.60;99.90
2190;DHT22;1101;51.056;7.262;2022-10-17T11:47:41;19.60;99.90
2190;DHT22;1101;51.056;7.262;2022-10-17T11:50:19;19.60;99.90
2190;DHT22;1101;51.056;7.262;2022-10-17T11:53:10;19.60;99.90
2190;DHT22;1101;51.056;7.262;2022-10-17T11:55:41;19.60;99.90
2190;DHT22;1101;51.056;7.262;2022-10-17T11:58:31;19.60;99.90
2190;DHT22;1101;51.056;7.262;2022-10-17T12:01:09;19.60;99.90
2190;DHT22;1101;51.056;7.262;2022-10-17T12:03:49;19.60;99.90
2190;DHT22;1101;51.056;7.262;2022-10-17T12:06:29;19.60;99.90
2190;DHT22;1101;51.056;7.262;2022-10-17T12:09:06;19.60;99.90
2190;DHT22;1101;51.056;7.262;2022-10-17T12:11:46;19.60;99.90
2190;DHT22;1101;51.056;7.262;2022-10-17T12:14:37;19.60;99.90
2190;DHT22;1101;51.056;7.262;2022-10-17T12:17:24;19.60;99.90
2190;DHT22;1101;51.056;7.262;2022-10-17T12:19:53;19.60;99.90
2190;DHT22;1101;51.056;7.262;2022-10-17T12:22:22;19.60;99.90
2190;DHT22;1101;51.056;7.262;2022-10-17T12:24:57;19.60;99.90
2190;DHT22;1101;51.056;7.262;2022-10-17T12:27:39;19.60;99.90
2190;DHT22;1101;51.056;7.262;2022-10-17T12:30:23;19.60;99.90
2190;DHT22;1101;51.056;7.262;2022-10-17T12:33:03;19.60;99.90
2190;DHT22;1101;51.056;7.262;2022-10-17T12:35:35;19.70;99.90
2190;DHT22;1101;51.056;7.262;2022-10-17T12:38:25;19.60;99.90
2190;DHT22;1101;51.056;7.262;2022-10-17T12:41:04;19.60;99.90
2190;DHT22;1101;51.056;7.262;2022-10-17T12:43:52;19.60;99.90
2190;DHT22;1101;51.056;7.262;2022-10-17T12:46:56;19.60;99.90
2190;DHT22;1101;51.056;7.262;2022-10-17T12:49:41;19.70;99.90
2190;DHT22;1101;51.056;7.262;2022-10-17T12:52:50;19.60;99.90
2190;DHT22;1101;51.056;7.262;2022-10-17T12:55:23;19.70;99.90
2190;DHT22;1101;51.056;7.262;2022-10-17T12:57:54;19.70;99.90
2190;DHT22;1101;51.056;7.262;2022-10-17T13:00:30;19.70;99.90
2190;DHT22;1101;51.056;7.262;2022-10-17T13:03:04;19.60;99.90
2190;DHT22;1101;51.056;7.262;2022-10-17T13:05:35;19.60;99.90
2190;DHT22;1101;51.056;7.262;2022-10-17T13:08:06;19.70;99.90
2190;DHT22;1101;51.056;7.262;2022-10-17T13:10:37;19.70;99.90
2190;DHT22;1101;51.056;7.262;2022-10-17T13:13:14;19.70;99.90
2190;DHT22;1101;51.056;7.262;2022-10-17T13:15:46;19.70;99.90
2190;DHT22;1101;51.056;7.262;2022-10-17T13:18:19;19.70;99.90
2190;DHT22;1101;51.056;7.262;2022-10-17T13:20:56;19.80;99.90
2190;DHT22;1101;51.056;7.262;2022-10-17T13:23:25;19.80;99.90
2190;DHT22;1101;51.056;7.262;2022-10-17T13:26:09;19.80;99.90
2190;DHT22;1101;51.056;7.262;2022-10-17T13:28:38;19.80;99.90
2190;DHT22;1101;51.056;7.262;2022-10-17T13:31:26;19.80;99.90
2190;DHT22;1101;51.056;7.262;2022-10-17T13:33:55;19.80;99.90
2190;DHT22;1101;51.056;7.262;2022-10-17T13:36:24;19.80;99.90
2190;DHT22;1101;51.056;7.262;2022-10-17T13:38:52;19.70;99.90
2190;DHT22;1101;51.056;7.262;2022-10-17T13:41:23;19.70;99.90
2190;DHT22;1101;51.056;7.262;2022-10-17T13:44:11;19.70;99.90
2190;DHT22;1101;51.056;7.262;2022-10-17T13:46:42;19.60;99.90
2190;DHT22;1101;51.056;7.262;2022-10-17T13:49:15;19.60;99.90
2190;DHT22;1101;51.056;7.262;2022-10-17T13:51:45;19.60;99.90
2190;DHT22;1101;51.056;7.262;2022-10-17T13:54:36;19.60;99.90
2190;DHT22;1101;51.056;7.262;2022-10-17T13:57:16;19.50;99.90
2190;DHT22;1101;51.056;7.262;2022-10-17T13:59:46;19.50;99.90
2190;DHT22;1101;51.056;7.262;2022-10-17T14:02:18;19.40;99.90
2190;DHT22;1101;51.056;7.262;2022-10-17T14:04:46;19.40;99.90
2190;DHT22;1101;51.056;7.262;2022-10-17T14:07:37;19.40;99.90
2190;DHT22;1101;51.056;7.262;2022-10-17T14:10:29;19.40;99.90
2190;DHT22;1101;51.056;7.262;2022-10-17T14:12:58;19.40;99.90
2190;DHT22;1101;51.056;7.262;2022-10-17T14:15:28;19.40;99.90
2190;DHT22;1101;51.056;7.262;2022-10-17T14:17:58;19.40;99.90
2190;DHT22;1101;51.056;7.262;2022-10-17T14:20:33;19.40;99.90
2190;DHT22;1101;51.056;7.262;2022-10-17T14:23:29;19.40;99.90
2190;DHT22;1101;51.056;7.262;2022-10-17T14:26:06;19.40;99.90
2190;DHT22;1101;51.056;7.262;2022-10-17T14:28:34;19.40;99.90
2190;DHT22;1101;51.056;7.262;2022-10-17T14:31:21;19.40;99.90
2190;DHT22;1101;51.056;7.262;2022-10-17T14:33:52;19.40;99.90
2190;DHT22;1101;51.056;7.262;2022-10-17T14:36:30;19.40;99.90
2190;DHT22;1101;51.056;7.262;2022-10-17T14:38:59;19.40;99.90
2190;DHT22;1101;51.056;7.262;2022-10-17T14:41:29;19.50;99.90
2190;DHT22;1101;51.056;7.262;2022-10-17T14:44:18;19.50;99.90
2190;DHT22;1101;51.056;7.262;2022-10-17T14:46:48;19.50;99.90
2190;DHT22;1101;51.056;7.262;2022-10-17T14:49:32;19.50;99.90
2190;DHT22;1101;51.056;7.262;2022-10-17T14:52:24;19.50;99.90
2190;DHT22;1101;51.056;7.262;2022-10-17T14:54:52;19.50;99.90
2190;DHT22;1101;51.056;7.262;2022-10-17T14:57:27;19.50;99.90
2190;DHT22;1101;51.056;7.262;2022-10-17T14:59:55;19.50;99.90
2190;DHT22;1101;51.056;7.262;2022-10-17T15:02:24;19.40;99.90
2190;DHT22;1101;51.056;7.262;2022-10-17T15:04:54;19.40;99.90
2190;DHT22;1101;51.056;7.262;2022-10-17T15:07:22;19.40;99.90
2190;DHT22;1101;51.056;7.262;2022-10-17T15:09:51;19.40;99.90
2190;DHT22;1101;51.056;7.262;2022-10-17T15:12:22;19.30;99.90
2190;DHT22;1101;51.056;7.262;2022-10-17T15:14:51;19.30;99.90
2190;DHT22;1101;51.056;7.262;2022-10-17T15:17:22;19.30;99.90
2190;DHT22;1101;51.056;7.262;2022-10-17T15:19:50;19.20;99.90
2190;DHT22;1101;51.056;7.262;2022-10-17T15:22:20;19.20;99.90
2190;DHT22;1101;51.056;7.262;2022-10-17T15:24:48;19.20;99.90
2190;DHT22;1101;51.056;7.262;2022-10-17T15:27:18;19.20;99.90
2190;DHT22;1101;51.056;7.262;2022-10-17T15:29:46;19.20;99.90
2190;DHT22;1101;51.056;7.262;2022-10-17T15:32:14;19.20;99.90
2190;DHT22;1101;51.056;7.262;2022-10-17T15:34:42;19.20;99.90
2190;DHT22;1101;51.056;7.262;2022-10-17T15:37:16;19.10;99.90
2190;DHT22;1101;51.056;7.262;2022-10-17T15:39:49;19.10;99.90
2190;DHT22;1101;51.056;7.262;2022-10-17T15:42:19;19.10;99.90
2190;DHT22;1101;51.056;7.262;2022-10-17T15:44:47;19.00;99.90
2190;DHT22;1101;51.056;7.262;2022-10-17T15:47:22;19.00;99.90
2190;DHT22;1101;51.056;7.262;2022-10-17T15:49:50;19.00;99.90
2190;DHT22;1101;51.056;7.262;2022-10-17T15:52:18;19.00;99.90
2190;DHT22;1101;51.056;7.262;2022-10-17T15:54:47;18.90;99.90
2190;DHT22;1101;51.056;7.262;2022-10-17T15:57:17;18.90;99.90
2190;DHT22;1101;51.056;7.262;2022-10-17T15:59:46;18.90;99.90
2190;DHT22;1101;51.056;7.262;2022-10-17T16:02:17;18.80;99.90
2190;DHT22;1101;51.056;7.262;2022-10-17T16:04:46;18.80;99.90
2190;DHT22;1101;51.056;7.262;2022-10-17T16:07:15;18.80;99.90
2190;DHT22;1101;51.056;7.262;2022-10-17T16:09:42;18.70;99.90
2190;DHT22;1101;51.056;7.262;2022-10-17T16:12:14;18.70;99.90
2190;DHT22;1101;51.056;7.262;2022-10-17T16:14:43;18.70;99.90
2190;DHT22;1101;51.056;7.262;2022-10-17T16:17:12;18.70;99.90
2190;DHT22;1101;51.056;7.262;2022-10-17T16:19:41;18.60;99.90
2190;DHT22;1101;51.056;7.262;2022-10-17T16:22:17;18.60;99.90
2190;DHT22;1101;51.056;7.262;2022-10-17T16:24:45;18.60;99.90
2190;DHT22;1101;51.056;7.262;2022-10-17T16:27:15;18.60;99.90
2190;DHT22;1101;51.056;7.262;2022-10-17T16:29:42;18.50;99.90
2190;DHT22;1101;51.056;7.262;2022-10-17T16:32:10;18.50;99.90
2190;DHT22;1101;51.056;7.262;2022-10-17T16:34:38;18.50;99.90